CheckWX is a tool to help pilots better visualize weather data.  It is not intended as a substitute for an official pre-flight weather briefing.

18:03:41 UTC

EFSI METAR
Seinäjoki Airport
Seinäjoki / Ilmajoki, Finland
Current

14 mins ago

EFSI 171750Z AUTO 00000KT //// SKC M08/M09 Q1019
Observed
Feb-17 @ 17:50 UTC
Visibility
Cloud Levels
  • Clear skies
Temperature
-8°C / 18°F
Dewpoint
-9°C / 16°F
Humidity
93%
Altimeter
30.09" Hg
Pressure
1018.92 hPa
Previous

44 mins ago

EFSI 171720Z AUTO 00000KT //// SKC M06/M09 Q1019
Observed
Feb-17 @ 17:20 UTC
Visibility
Cloud Levels
  • Clear skies
Temperature
-6°C / 21°F
Dewpoint
-9°C / 16°F
Humidity
80%
Altimeter
30.09" Hg
Pressure
1018.92 hPa
Previous

1 hour ago

EFSI 171650Z AUTO 34001KT //// SKC M05/M08 Q1019
Observed
Feb-17 @ 16:50 UTC
Wind
  • 340° at 1 KTS
Visibility
Cloud Levels
  • Clear skies
Temperature
-5°C / 23°F
Dewpoint
-8°C / 18°F
Humidity
80%
Altimeter
30.09" Hg
Pressure
1018.92 hPa